Time;durP1;ratioP1;P1;durP2;ratioP2;P2;SDS_P1;SDS_P2;PMS_P1;PMS_P2;Temp;Humidity;BMP_temperature;BMP_pressure;BME280_temperature;BME280_humidity;BME280_pressure;Samples;Min_cycle;Max_cycle;Signal;HPM_P1;HPM_P2
2022/12/25 00:01:19;;;;;;;9.20;6.90;;;11.80;99.90;;;;;;5073145;28;20206;-78
2022/12/25 00:03:45;;;;;;;9.27;6.53;;;11.80;99.90;;;;;;5069259;28;20187;-78
2022/12/25 00:06:12;;;;;;;7.70;6.93;;;11.80;99.90;;;;;;5053971;28;20214;-78
2022/12/25 00:08:40;;;;;;;8.03;7.23;;;11.80;99.90;;;;;;5068682;28;20186;-78
2022/12/25 00:11:13;;;;;;;7.80;6.93;;;11.80;99.90;;;;;;5050895;28;20286;-78
2022/12/25 00:13:40;;;;;;;9.17;7.17;;;11.80;99.90;;;;;;5067377;28;20190;-80
2022/12/25 00:16:16;;;;;;;8.53;7.00;;;11.80;99.90;;;;;;5069771;28;20234;-78
2022/12/25 00:18:43;;;;;;;7.97;6.67;;;11.80;99.90;;;;;;5054572;28;20535;-78
2022/12/25 00:21:10;;;;;;;8.00;7.10;;;11.80;99.90;;;;;;5062603;28;20299;-78
2022/12/25 00:23:38;;;;;;;7.60;6.90;;;11.80;99.90;;;;;;5071821;28;20302;-78
2022/12/25 00:26:14;;;;;;;9.43;6.80;;;11.80;99.90;;;;;;5071664;28;20197;-78
2022/12/25 00:28:42;;;;;;;9.43;7.10;;;11.70;99.90;;;;;;5078402;28;20284;-78
2022/12/25 00:31:15;;;;;;;7.90;6.80;;;11.70;99.90;;;;;;5083508;28;20202;-78
2022/12/25 00:33:44;;;;;;;8.73;6.70;;;11.70;99.90;;;;;;5086268;28;20517;-78
2022/12/25 00:36:13;;;;;;;8.33;6.67;;;11.70;99.90;;;;;;5087611;28;20175;-78
2022/12/25 00:38:40;;;;;;;7.93;7.17;;;11.60;99.90;;;;;;5053550;28;20183;-79
2022/12/25 00:42:17;;;;;;;10.57;6.73;;;11.60;99.90;;;;;;5053689;28;20867;-78
2022/12/25 00:44:05;;;;;;;7.10;6.40;;;11.60;99.90;;;;;;5070074;28;20187;-78
2022/12/25 00:46:31;;;;;;;7.27;6.27;;;11.50;99.90;;;;;;5053199;28;20521;-78
2022/12/25 00:49:02;;;;;;;9.13;6.30;;;11.50;99.90;;;;;;5069506;28;20178;-78
2022/12/25 00:51:28;;;;;;;6.63;5.93;;;11.50;99.90;;;;;;5064743;28;20214;-78
2022/12/25 00:53:55;;;;;;;9.37;6.60;;;11.50;99.90;;;;;;5086801;28;20202;-78
2022/12/25 00:56:21;;;;;;;7.50;6.70;;;11.50;99.90;;;;;;5069808;28;20191;-78
2022/12/25 00:58:48;;;;;;;7.97;6.43;;;11.50;99.90;;;;;;5053127;28;20198;-78
2022/12/25 01:01:14;;;;;;;7.30;6.50;;;11.50;99.90;;;;;;5070331;28;20271;-77
2022/12/25 01:03:42;;;;;;;6.97;6.10;;;11.50;99.90;;;;;;5086757;28;20179;-77
2022/12/25 01:06:11;;;;;;;6.50;5.90;;;11.50;99.90;;;;;;5071200;28;20206;-78
2022/12/25 01:10:21;;;;;;;7.37;6.20;;;11.50;99.90;;;;;;5053544;28;20182;-77
2022/12/25 01:11:30;;;;;;;7.03;6.13;;;11.50;99.90;;;;;;5070694;28;20198;-78
2022/12/25 01:13:58;;;;;;;5.93;5.33;;;11.50;99.90;;;;;;5053512;28;20239;-78
2022/12/25 01:16:26;;;;;;;7.37;6.27;;;11.40;99.90;;;;;;5075333;28;20175;-78
2022/12/25 01:18:53;;;;;;;10.53;5.93;;;11.40;99.90;;;;;;5054443;28;20184;-77
2022/12/25 01:21:21;;;;;;;6.47;5.10;;;11.40;99.90;;;;;;5086962;28;20201;-77
2022/12/25 01:23:51;;;;;;;5.80;5.20;;;11.30;99.90;;;;;;5070246;28;20559;-77
2022/12/25 01:26:22;;;;;;;7.00;5.00;;;11.30;99.90;;;;;;5053437;28;20281;-78
2022/12/25 01:28:50;;;;;;;6.20;5.30;;;11.30;99.90;;;;;;5053144;28;20187;-78
2022/12/25 01:31:20;;;;;;;6.83;5.33;;;11.30;99.90;;;;;;5070560;28;20203;-78
2022/12/25 01:33:47;;;;;;;6.50;5.40;;;11.30;99.90;;;;;;5071692;28;20529;-78
2022/12/25 01:36:23;;;;;;;7.57;4.90;;;11.30;99.90;;;;;;5069975;28;20270;-78
2022/12/25 01:38:51;;;;;;;8.00;5.27;;;11.30;99.90;;;;;;5064768;28;20547;-78
2022/12/25 01:41:22;;;;;;;7.87;4.93;;;11.30;99.90;;;;;;5069607;28;20277;-78
2022/12/25 01:44:15;;;;;;;6.63;5.33;;;11.30;99.90;;;;;;5085671;28;20186;-77
2022/12/25 01:46:43;;;;;;;6.43;5.37;;;11.30;99.90;;;;;;5053890;28;20187;-78
2022/12/25 01:49:16;;;;;;;7.67;5.70;;;11.20;99.90;;;;;;5086543;28;20179;-78
2022/12/25 01:51:51;;;;;;;10.30;6.67;;;11.30;99.90;;;;;;5069199;28;20203;-78
2022/12/25 01:54:32;;;;;;;8.07;5.77;;;11.30;99.90;;;;;;5070771;28;20900;-77
2022/12/25 01:57:05;;;;;;;7.97;6.10;;;11.30;99.90;;;;;;5052495;28;20191;-78
2022/12/25 01:59:32;;;;;;;6.93;6.17;;;11.30;99.90;;;;;;5033500;28;20179;-77
2022/12/25 02:02:00;;;;;;;6.27;5.30;;;11.20;99.90;;;;;;5049469;28;20183;-77
2022/12/25 02:04:38;;;;;;;6.73;5.50;;;11.20;99.90;;;;;;5066409;28;20269;-78
2022/12/25 02:07:25;;;;;;;6.53;5.57;;;11.20;99.90;;;;;;5050713;28;20298;-77
2022/12/25 02:09:52;;;;;;;6.50;5.60;;;11.10;99.90;;;;;;5041752;28;20197;-78
2022/12/25 02:12:28;;;;;;;7.97;5.73;;;11.10;99.90;;;;;;5070525;28;20221;-78
2022/12/25 02:15:04;;;;;;;6.87;5.50;;;11.10;99.90;;;;;;5070996;28;20266;-77
2022/12/25 02:17:53;;;;;;;7.90;5.33;;;11.10;99.90;;;;;;5069108;28;20182;-77
2022/12/25 02:21:10;;;;;;;7.27;5.50;;;11.10;99.90;;;;;;5084346;28;20214;-77
2022/12/25 02:24:10;;;;;;;5.90;5.30;;;11.10;99.90;;;;;;5052686;28;20190;-77
2022/12/25 02:27:18;;;;;;;5.80;4.70;;;11.10;99.90;;;;;;5068503;28;20269;-78
2022/12/25 02:30:01;;;;;;;9.03;5.67;;;11.00;99.90;;;;;;5065863;28;20219;-78
2022/12/25 02:32:46;;;;;;;5.20;4.70;;;11.00;99.90;;;;;;5068853;28;20197;-78
2022/12/25 02:35:19;;;;;;;5.80;5.20;;;11.00;99.90;;;;;;5084884;28;20271;-78
2022/12/25 02:37:55;;;;;;;5.57;4.87;;;10.90;99.90;;;;;;5052102;28;20194;-78
2022/12/25 02:40:34;;;;;;;5.93;5.30;;;10.90;99.90;;;;;;5051916;28;20205;-78
2022/12/25 03:06:42;;;;;;;6.07;4.77;;;10.90;99.90;;;;;;5066452;28;20329;-78
2022/12/25 03:12:20;;;;;;;5.67;5.07;;;10.80;99.90;;;;;;5065194;28;20814;-78
2022/12/25 03:17:32;;;;;;;5.57;4.67;;;10.80;99.90;;;;;;5064645;28;20253;-78
2022/12/25 03:28:16;;;;;;;6.03;4.57;;;10.70;99.90;;;;;;5069089;28;20190;-78
2022/12/25 03:31:12;;;;;;;8.30;4.37;;;10.70;99.90;;;;;;5068261;28;20201;-78
2022/12/25 04:37:56;;;;;;;5.73;4.33;;;10.40;99.90;;;;;;5069593;28;20175;-78
2022/12/25 04:40:23;;;;;;;6.00;4.33;;;10.40;99.90;;;;;;5069032;28;20171;-78
2022/12/25 04:42:52;;;;;;;8.67;4.20;;;10.40;99.90;;;;;;5071056;28;20639;-78
2022/12/25 04:45:18;;;;;;;4.23;3.83;;;10.30;99.90;;;;;;5072047;28;20175;-78
2022/12/25 04:47:46;;;;;;;5.40;4.07;;;10.30;99.90;;;;;;5072216;28;20171;-78
2022/12/25 04:50:14;;;;;;;7.87;4.30;;;10.30;99.90;;;;;;5054299;28;20186;-78
2022/12/25 04:52:41;;;;;;;5.17;4.07;;;10.30;99.90;;;;;;5088086;28;20536;-77
2022/12/25 04:55:09;;;;;;;4.53;4.00;;;10.20;99.90;;;;;;5068990;28;20190;-77
2022/12/25 04:57:36;;;;;;;5.37;3.83;;;10.20;99.90;;;;;;5034373;28;20520;-78
2022/12/25 05:00:04;;;;;;;9.63;4.53;;;10.20;99.90;;;;;;5038751;28;20178;-77
2022/12/25 05:02:31;;;;;;;6.23;4.20;;;10.20;99.90;;;;;;5070990;28;20214;-78
2022/12/25 05:04:58;;;;;;;6.60;4.43;;;10.20;99.90;;;;;;5070668;28;20189;-78
2022/12/25 05:07:24;;;;;;;4.60;3.90;;;10.20;99.90;;;;;;5062172;28;20187;-78
2022/12/25 05:09:51;;;;;;;5.00;4.07;;;10.20;99.90;;;;;;5034111;28;20180;-78
2022/12/25 05:12:18;;;;;;;4.43;4.03;;;10.20;99.90;;;;;;5050764;28;20310;-78
2022/12/25 05:14:46;;;;;;;5.37;4.07;;;10.10;99.90;;;;;;5051895;28;20191;-78
2022/12/25 05:17:12;;;;;;;6.20;4.13;;;10.10;99.90;;;;;;5055318;28;20186;-78
2022/12/25 05:19:38;;;;;;;5.77;4.20;;;10.10;99.90;;;;;;5049945;28;20187;-78
2022/12/25 05:22:05;;;;;;;5.97;4.23;;;10.10;99.90;;;;;;5051922;28;20276;-78
2022/12/25 05:24:32;;;;;;;5.37;4.50;;;10.20;99.90;;;;;;5033736;28;20257;-78
2022/12/25 05:26:58;;;;;;;5.33;4.20;;;10.20;99.90;;;;;;5051200;28;20615;-78
2022/12/25 05:29:25;;;;;;;5.53;4.50;;;10.10;99.90;;;;;;5063092;28;20183;-78
2022/12/25 05:31:52;;;;;;;4.87;4.30;;;10.20;99.90;;;;;;5070529;28;20563;-78
2022/12/25 05:34:18;;;;;;;5.53;4.67;;;10.20;99.90;;;;;;5069995;28;20182;-78
2022/12/25 05:36:48;;;;;;;6.00;4.07;;;10.20;99.90;;;;;;5069626;28;20214;-78
2022/12/25 05:39:14;;;;;;;7.93;4.43;;;10.20;99.90;;;;;;5069549;28;20179;-78
2022/12/25 05:41:40;;;;;;;5.77;4.73;;;10.20;99.90;;;;;;5070047;28;20195;-78
2022/12/25 05:44:07;;;;;;;6.20;4.70;;;10.30;99.90;;;;;;5073040;28;20186;-77
2022/12/25 05:46:33;;;;;;;7.37;4.70;;;10.30;99.90;;;;;;5068515;28;20214;-78
2022/12/25 05:49:00;;;;;;;5.47;4.60;;;10.30;99.90;;;;;;5069081;28;20191;-78
2022/12/25 05:51:26;;;;;;;6.40;4.47;;;10.40;99.90;;;;;;5052701;28;20252;-78
2022/12/25 05:53:53;;;;;;;5.87;4.90;;;10.40;99.90;;;;;;5052500;28;20179;-78
2022/12/25 05:56:19;;;;;;;6.07;4.70;;;10.50;99.90;;;;;;5050909;28;20229;-77
2022/12/25 05:58:45;;;;;;;7.73;4.27;;;10.50;99.90;;;;;;5052400;28;20182;-78
2022/12/25 06:01:19;;;;;;;6.60;4.43;;;10.50;99.90;;;;;;5085056;28;20194;-77
2022/12/25 06:03:45;;;;;;;5.37;4.50;;;10.60;99.90;;;;;;5069233;28;20191;-77
2022/12/25 06:06:13;;;;;;;5.23;4.00;;;10.60;99.90;;;;;;5068278;28;20191;-77
2022/12/25 06:08:40;;;;;;;4.50;4.10;;;10.60;99.90;;;;;;5052091;28;20210;-77
2022/12/25 06:11:13;;;;;;;5.20;4.37;;;10.70;99.90;;;;;;5068520;28;20207;-77
2022/12/25 06:13:41;;;;;;;5.97;4.50;;;10.80;99.90;;;;;;5068314;28;20191;-77
2022/12/25 06:16:11;;;;;;;4.97;4.20;;;10.80;99.90;;;;;;5068177;28;20663;-77
2022/12/25 06:18:42;;;;;;;5.10;4.60;;;10.80;99.90;;;;;;5070201;28;20197;-77
2022/12/25 06:21:11;;;;;;;7.97;4.30;;;10.90;99.90;;;;;;5068736;28;20182;-78
2022/12/25 06:23:39;;;;;;;5.00;4.20;;;10.90;99.90;;;;;;5068332;28;20260;-77
2022/12/25 06:26:10;;;;;;;5.50;4.43;;;11.00;99.90;;;;;;5068225;28;20190;-79
2022/12/25 06:28:36;;;;;;;5.00;4.27;;;11.10;99.90;;;;;;5069602;28;20269;-78
2022/12/25 06:31:16;;;;;;;5.00;4.27;;;11.20;99.90;;;;;;5084937;28;20218;-79
2022/12/25 06:33:44;;;;;;;4.83;4.30;;;11.30;99.90;;;;;;5068813;28;20252;-79
2022/12/25 06:36:19;;;;;;;4.97;4.33;;;11.30;99.90;;;;;;5068676;28;20186;-78
2022/12/25 06:38:47;;;;;;;5.37;4.50;;;11.40;99.90;;;;;;5058587;28;20663;-79
2022/12/25 06:41:21;;;;;;;5.17;4.40;;;11.40;99.90;;;;;;5066659;28;20229;-79
2022/12/25 06:43:50;;;;;;;5.67;4.47;;;11.60;99.90;;;;;;5051984;28;20187;-79
2022/12/25 06:46:18;;;;;;;4.70;4.20;;;11.70;99.90;;;;;;5052184;28;20674;-79
2022/12/25 06:48:48;;;;;;;7.07;4.53;;;11.70;99.90;;;;;;5052090;28;20594;-80
2022/12/25 06:51:24;;;;;;;4.80;4.10;;;11.80;99.90;;;;;;5069055;28;20252;-79
2022/12/25 06:53:53;;;;;;;5.10;4.57;;;11.80;99.90;;;;;;5069397;28;20197;-79
2022/12/25 06:56:26;;;;;;;4.53;4.13;;;11.90;99.90;;;;;;5068337;28;20186;-79
2022/12/25 06:58:57;;;;;;;5.50;4.27;;;11.90;99.90;;;;;;5070554;28;20206;-79
2022/12/25 07:01:41;;;;;;;6.53;4.47;;;11.90;99.90;;;;;;5086064;28;20186;-79
2022/12/25 07:04:43;;;;;;;4.67;4.23;;;12.00;99.90;;;;;;5052190;28;20265;-79
2022/12/25 07:07:10;;;;;;;5.70;4.30;;;12.00;99.90;;;;;;5061952;28;20229;-79
2022/12/25 07:09:41;;;;;;;7.53;4.50;;;12.00;99.90;;;;;;5068543;28;20655;-79
2022/12/25 07:12:19;;;;;;;5.63;4.23;;;12.00;99.90;;;;;;5049690;28;20310;-79
2022/12/25 07:14:48;;;;;;;7.53;4.83;;;12.10;99.90;;;;;;5049240;28;20628;-79
2022/12/25 07:17:19;;;;;;;5.47;4.63;;;12.10;99.90;;;;;;5047868;28;20549;-79
2022/12/25 07:19:46;;;;;;;5.07;4.40;;;12.10;99.90;;;;;;5069726;28;20214;-79
2022/12/25 07:22:14;;;;;;;6.17;4.30;;;12.10;99.90;;;;;;5069892;28;20241;-79
2022/12/25 07:24:40;;;;;;;6.40;4.40;;;12.20;99.90;;;;;;5066285;28;20187;-79
2022/12/25 07:27:07;;;;;;;4.83;4.33;;;12.20;99.90;;;;;;5032049;28;20191;-79
2022/12/25 07:29:33;;;;;;;7.17;4.00;;;12.30;99.90;;;;;;5056444;28;20195;-78
2022/12/25 07:32:00;;;;;;;5.23;4.67;;;12.30;99.90;;;;;;5068058;28;20365;-79
2022/12/25 07:34:26;;;;;;;5.33;4.83;;;12.30;99.90;;;;;;5068604;28;20627;-79
2022/12/25 07:36:54;;;;;;;6.80;4.27;;;12.30;99.90;;;;;;5064622;28;20180;-79
2022/12/25 07:39:20;;;;;;;7.03;4.50;;;12.30;99.90;;;;;;5050867;28;20179;-79
2022/12/25 07:41:47;;;;;;;7.60;4.50;;;12.30;99.90;;;;;;5086371;28;20191;-79
2022/12/25 07:44:15;;;;;;;7.30;4.30;;;12.40;99.90;;;;;;5071142;28;20193;-79
2022/12/25 07:46:41;;;;;;;5.50;4.10;;;12.40;99.90;;;;;;5071734;28;20210;-79
2022/12/25 07:49:08;;;;;;;6.07;4.10;;;12.40;99.90;;;;;;5078422;28;20208;-79
2022/12/25 07:51:34;;;;;;;4.37;3.97;;;12.50;99.90;;;;;;5063680;28;20738;-79
2022/12/25 07:54:01;;;;;;;5.63;4.17;;;12.50;99.90;;;;;;5049303;28;20513;-79
2022/12/25 07:56:27;;;;;;;5.07;4.13;;;12.60;99.90;;;;;;5056903;28;20713;-78
2022/12/25 07:58:54;;;;;;;4.93;4.43;;;12.60;99.90;;;;;;5072056;28;20236;-79
2022/12/25 08:01:26;;;;;;;5.57;4.53;;;12.60;99.90;;;;;;5070935;28;20344;-79
2022/12/25 08:03:59;;;;;;;5.23;4.17;;;12.60;99.90;;;;;;5086702;28;20198;-79
2022/12/25 08:06:33;;;;;;;4.77;3.70;;;12.60;99.90;;;;;;5071271;28;20226;-79
2022/12/25 08:09:10;;;;;;;4.47;3.90;;;12.50;99.90;;;;;;5073594;28;20221;-79
2022/12/25 08:11:38;;;;;;;6.90;3.83;;;12.50;99.90;;;;;;5071448;28;20582;-79
2022/12/25 08:14:07;;;;;;;4.70;4.30;;;12.50;99.90;;;;;;5069302;28;20186;-79
2022/12/25 08:16:35;;;;;;;4.90;4.30;;;12.50;99.90;;;;;;5066654;28;20188;-79
2022/12/25 08:19:01;;;;;;;4.73;4.23;;;12.50;99.90;;;;;;5085199;28;20278;-79
2022/12/25 08:21:27;;;;;;;5.73;4.30;;;12.50;99.90;;;;;;5069618;28;20277;-79
2022/12/25 08:23:53;;;;;;;6.10;4.70;;;12.50;99.90;;;;;;5053453;28;20268;-79
2022/12/25 08:26:22;;;;;;;5.17;4.67;;;12.50;99.90;;;;;;5066460;28;20831;-79
2022/12/25 08:28:50;;;;;;;4.27;3.87;;;12.50;99.90;;;;;;5086569;28;20282;-78
2022/12/25 08:31:20;;;;;;;4.70;4.30;;;12.60;99.90;;;;;;5067290;28;20275;-79
2022/12/25 08:33:50;;;;;;;4.93;4.43;;;12.50;99.90;;;;;;5053631;28;20244;-79
2022/12/25 08:36:18;;;;;;;5.30;4.80;;;12.50;99.90;;;;;;5048117;28;20228;-79
2022/12/25 08:38:45;;;;;;;5.43;4.93;;;12.50;99.90;;;;;;5070321;28;20192;-79
2022/12/25 08:41:15;;;;;;;6.00;4.80;;;12.50;99.90;;;;;;5072719;28;20294;-78
2022/12/25 08:43:43;;;;;;;5.77;5.07;;;12.60;99.90;;;;;;5069765;28;20328;-79
2022/12/25 08:46:13;;;;;;;7.53;5.23;;;12.60;99.90;;;;;;5057343;28;20247;-79
2022/12/25 08:48:47;;;;;;;5.90;5.30;;;12.60;99.90;;;;;;5066045;28;20212;-79
2022/12/25 08:51:19;;;;;;;5.33;4.80;;;12.70;99.90;;;;;;5061198;28;20293;-78
2022/12/25 08:53:49;;;;;;;6.67;5.43;;;12.70;99.90;;;;;;5099578;28;20236;-78
2022/12/25 08:56:17;;;;;;;5.20;4.70;;;12.70;99.90;;;;;;5061980;28;20187;-78
2022/12/25 08:58:44;;;;;;;5.70;5.20;;;12.80;99.90;;;;;;5052215;28;20207;-79
2022/12/25 09:01:12;;;;;;;6.20;5.33;;;12.80;99.90;;;;;;5053806;28;20190;-78
2022/12/25 09:03:38;;;;;;;5.63;4.97;;;12.80;99.90;;;;;;5070136;28;21033;-79
2022/12/25 09:06:10;;;;;;;6.00;5.30;;;12.90;99.90;;;;;;5058152;28;20193;-79
2022/12/25 09:08:37;;;;;;;9.23;5.60;;;12.90;99.90;;;;;;5072152;28;20211;-79
2022/12/25 09:11:09;;;;;;;5.70;5.17;;;12.90;99.90;;;;;;5060990;28;20293;-78
2022/12/25 09:13:36;;;;;;;6.60;5.00;;;12.90;99.90;;;;;;5089382;28;20222;-79
2022/12/25 09:16:16;;;;;;;5.60;5.00;;;12.90;99.90;;;;;;5069050;28;20191;-79
2022/12/25 09:18:43;;;;;;;8.90;5.30;;;13.00;99.90;;;;;;5078509;28;20220;-78
2022/12/25 09:21:12;;;;;;;6.13;5.47;;;13.00;99.90;;;;;;5050870;28;20564;-79
2022/12/25 09:23:39;;;;;;;6.70;5.63;;;13.10;99.90;;;;;;5054412;28;20206;-78
2022/12/25 09:26:09;;;;;;;5.30;4.80;;;13.10;99.90;;;;;;5067821;28;20198;-78
2022/12/25 09:28:37;;;;;;;6.20;5.60;;;13.10;99.90;;;;;;5056886;28;20193;-79
2022/12/25 09:31:04;;;;;;;7.77;5.27;;;13.20;99.90;;;;;;5074088;28;20252;-78
2022/12/25 09:33:30;;;;;;;5.77;5.27;;;13.20;99.90;;;;;;5056061;28;20691;-78
2022/12/25 09:36:03;;;;;;;6.93;5.47;;;13.10;99.90;;;;;;5068268;28;20222;-78
2022/12/25 09:38:30;;;;;;;5.80;5.30;;;13.00;99.90;;;;;;5059070;28;20288;-79
2022/12/25 09:41:13;;;;;;;6.13;5.50;;;13.00;99.90;;;;;;5054300;28;20670;-79
2022/12/25 09:44:14;;;;;;;6.30;5.33;;;13.00;99.90;;;;;;5072199;28;20198;-78
2022/12/25 09:47:09;;;;;;;7.30;5.30;;;13.00;99.90;;;;;;5068972;28;20293;-78
2022/12/25 09:49:45;;;;;;;7.00;5.17;;;13.00;99.90;;;;;;5046396;28;20325;-79
2022/12/25 09:52:36;;;;;;;7.13;5.00;;;13.00;99.90;;;;;;5066938;28;20282;-79
2022/12/25 09:55:23;;;;;;;5.53;4.70;;;13.00;99.90;;;;;;5054648;28;20190;-79
2022/12/25 09:57:57;;;;;;;5.57;4.93;;;13.00;99.90;;;;;;5078363;28;20281;-79
2022/12/25 10:00:58;;;;;;;6.23;5.20;;;13.00;99.90;;;;;;5058052;28;20536;-79
2022/12/25 10:03:56;;;;;;;5.63;4.90;;;13.00;99.90;;;;;;5066637;28;20186;-79
2022/12/25 10:06:51;;;;;;;8.07;5.33;;;13.00;99.90;;;;;;5086098;28;20252;-79
2022/12/25 10:10:11;;;;;;;6.73;5.20;;;13.00;99.90;;;;;;5030158;28;20204;-79
2022/12/25 10:13:07;;;;;;;5.60;5.10;;;13.00;99.90;;;;;;5074181;28;20268;-79
2022/12/25 10:16:08;;;;;;;6.93;5.27;;;13.00;99.90;;;;;;5058559;28;20210;-79
2022/12/25 10:18:50;;;;;;;5.07;4.53;;;13.00;99.90;;;;;;5080481;28;20604;-79
2022/12/25 10:21:19;;;;;;;6.57;4.93;;;13.00;99.90;;;;;;5064292;28;20190;-79
2022/12/25 10:24:04;;;;;;;5.73;4.83;;;12.90;99.90;;;;;;5068003;28;20221;-79
2022/12/25 10:26:34;;;;;;;7.50;5.50;;;12.90;99.90;;;;;;5090728;28;20185;-79
2022/12/25 10:29:20;;;;;;;5.30;4.80;;;12.90;99.90;;;;;;5052708;28;20321;-79
2022/12/25 10:31:53;;;;;;;9.43;5.50;;;13.00;99.90;;;;;;5083842;28;20679;-79
2022/12/25 10:34:21;;;;;;;7.63;5.60;;;13.10;99.90;;;;;;5053001;28;20190;-79
2022/12/25 10:36:50;;;;;;;9.93;5.67;;;13.10;99.90;;;;;;5050491;28;20610;-79
2022/12/25 10:39:24;;;;;;;5.40;4.90;;;13.10;99.90;;;;;;5074078;28;20185;-79
2022/12/25 10:42:22;;;;;;;4.77;4.37;;;13.10;99.90;;;;;;5067808;28;20808;-79
2022/12/25 10:45:02;;;;;;;6.87;5.70;;;13.10;99.90;;;;;;5053169;28;20282;-79
2022/12/25 10:47:33;;;;;;;6.20;5.60;;;13.10;99.90;;;;;;5058301;28;20186;-79
2022/12/25 10:50:23;;;;;;;6.00;5.30;;;13.10;99.90;;;;;;5065626;28;20198;-79
2022/12/25 10:53:05;;;;;;;9.17;5.80;;;13.10;99.90;;;;;;5062457;28;20711;-80
2022/12/25 10:55:32;;;;;;;8.83;5.90;;;13.00;99.90;;;;;;5063852;28;20269;-79
2022/12/25 10:58:00;;;;;;;10.40;5.63;;;13.00;99.90;;;;;;5068805;28;20182;-79
2022/12/25 11:00:32;;;;;;;7.93;5.63;;;12.90;99.90;;;;;;5070007;28;20248;-79
2022/12/25 11:02:59;;;;;;;6.10;5.43;;;12.90;99.90;;;;;;5048353;28;20738;-79
2022/12/25 11:05:27;;;;;;;7.30;5.13;;;12.90;99.90;;;;;;5067701;28;20182;-79
2022/12/25 11:07:59;;;;;;;5.90;5.30;;;12.90;99.90;;;;;;5084293;28;20242;-79
2022/12/25 11:10:31;;;;;;;6.77;6.00;;;12.80;99.90;;;;;;5069060;28;20183;-79
2022/12/25 11:13:03;;;;;;;6.60;5.93;;;12.80;99.90;;;;;;5067939;28;20198;-79
2022/12/25 11:15:38;;;;;;;7.30;6.30;;;12.80;99.90;;;;;;5069093;28;20183;-79
2022/12/25 11:18:20;;;;;;;7.07;6.37;;;12.90;99.90;;;;;;5085278;28;20584;-79
2022/12/25 11:21:24;;;;;;;6.73;5.90;;;12.90;99.90;;;;;;5063356;28;20236;-79
2022/12/25 11:24:01;;;;;;;6.97;5.67;;;12.90;99.90;;;;;;5070291;28;20201;-79
2022/12/25 11:26:30;;;;;;;9.90;6.07;;;12.90;99.90;;;;;;5082547;28;20187;-79
2022/12/25 11:28:58;;;;;;;6.53;5.77;;;12.80;99.90;;;;;;5080631;28;20635;-79
2022/12/25 11:31:38;;;;;;;8.67;6.67;;;12.80;99.90;;;;;;5061377;28;20213;-78
2022/12/25 11:34:31;;;;;;;7.13;6.43;;;12.80;99.90;;;;;;5069047;28;20190;-79
2022/12/25 11:37:01;;;;;;;9.30;6.70;;;12.80;99.90;;;;;;5067151;28;20191;-78
2022/12/25 11:39:38;;;;;;;10.93;6.27;;;12.80;99.90;;;;;;5071765;28;20718;-79
2022/12/25 11:42:40;;;;;;;6.93;6.23;;;12.80;99.90;;;;;;5048555;28;20189;-80
2022/12/25 11:45:23;;;;;;;8.10;6.27;;;12.80;99.90;;;;;;5070912;28;20203;-79
2022/12/25 11:48:01;;;;;;;9.53;7.27;;;12.80;99.90;;;;;;5070809;28;20396;-79
2022/12/25 11:50:51;;;;;;;7.73;6.97;;;12.90;99.90;;;;;;5070661;28;20555;-79
2022/12/25 11:53:47;;;;;;;7.53;6.63;;;12.90;99.90;;;;;;5060517;28;20228;-79
2022/12/25 11:56:24;;;;;;;8.17;6.80;;;12.80;99.90;;;;;;5067357;28;20186;-79
2022/12/25 11:58:52;;;;;;;7.53;6.80;;;12.80;99.90;;;;;;5072617;28;20197;-78
2022/12/25 12:01:56;;;;;;;8.50;7.10;;;12.80;99.90;;;;;;5058329;28;20213;-79
2022/12/25 12:04:32;;;;;;;8.47;7.60;;;12.80;99.90;;;;;;5049867;28;20278;-79
2022/12/25 12:07:19;;;;;;;8.80;6.93;;;12.90;99.90;;;;;;5059494;28;20563;-79
2022/12/25 12:10:01;;;;;;;8.17;7.43;;;12.90;99.90;;;;;;5056109;28;20190;-79
2022/12/25 12:12:48;;;;;;;10.23;7.30;;;12.90;99.90;;;;;;5065760;28;20202;-79
2022/12/25 12:15:44;;;;;;;11.33;7.30;;;12.90;99.90;;;;;;5076798;28;20207;-79
2022/12/25 12:18:28;;;;;;;8.33;7.47;;;12.90;99.90;;;;;;5070598;28;20194;-79
2022/12/25 12:21:29;;;;;;;8.20;7.40;;;12.90;99.90;;;;;;5083849;28;20972;-79
2022/12/25 12:24:19;;;;;;;9.03;8.13;;;12.90;99.90;;;;;;5065673;28;20209;-78
2022/12/25 12:26:58;;;;;;;9.37;7.93;;;12.90;99.90;;;;;;5072571;28;20183;-78
2022/12/25 12:29:31;;;;;;;10.87;8.07;;;12.90;99.90;;;;;;5074238;28;20970;-79
2022/12/25 12:32:03;;;;;;;9.80;8.30;;;12.90;99.90;;;;;;5066888;28;20200;-79
2022/12/25 12:34:51;;;;;;;11.57;8.43;;;12.80;99.90;;;;;;5071955;28;20895;-78
2022/12/25 12:37:39;;;;;;;12.57;9.93;;;12.80;99.90;;;;;;5079179;28;20191;-79
2022/12/25 12:40:22;;;;;;;13.50;10.03;;;12.80;99.90;;;;;;5082541;28;20666;-79
2022/12/25 12:42:51;;;;;;;12.27;9.67;;;12.80;99.90;;;;;;5076576;28;20711;-79
2022/12/25 12:45:24;;;;;;;10.00;9.00;;;12.80;99.90;;;;;;5073048;28;20198;-79
2022/12/25 12:47:52;;;;;;;11.80;8.77;;;12.90;99.90;;;;;;5084148;28;20187;-79
2022/12/25 12:50:33;;;;;;;9.70;8.70;;;12.90;99.90;;;;;;5070151;28;20194;-79
2022/12/25 12:53:21;;;;;;;9.53;8.00;;;12.90;99.90;;;;;;5071192;28;20183;-79
2022/12/25 12:55:50;;;;;;;8.83;7.80;;;12.90;99.90;;;;;;5066815;28;20202;-79
2022/12/25 12:58:32;;;;;;;9.67;8.30;;;12.90;99.90;;;;;;5062614;28;20679;-79
2022/12/25 13:01:16;;;;;;;9.10;8.20;;;13.00;99.90;;;;;;5067136;28;20192;-79
2022/12/25 13:04:04;;;;;;;9.23;8.33;;;12.90;99.90;;;;;;5064834;28;21899;-78
2022/12/25 13:06:48;;;;;;;9.67;8.17;;;13.00;99.90;;;;;;5056677;28;20623;-78
2022/12/25 13:09:26;;;;;;;10.00;8.30;;;13.00;99.90;;;;;;5077316;28;20192;-78
2022/12/25 13:11:54;;;;;;;8.73;7.53;;;13.00;99.90;;;;;;5076465;28;20207;-78
2022/12/25 13:14:23;;;;;;;10.13;8.60;;;13.00;99.90;;;;;;5044739;28;20183;-78
2022/12/25 13:16:53;;;;;;;11.50;8.37;;;13.00;99.90;;;;;;5081689;28;20190;-78
2022/12/25 13:19:26;;;;;;;14.00;8.50;;;13.00;99.90;;;;;;5063158;28;20595;-79
2022/12/25 13:21:57;;;;;;;9.17;8.17;;;13.00;99.90;;;;;;5055046;28;20181;-78
2022/12/25 13:24:32;;;;;;;9.70;8.20;;;13.00;99.90;;;;;;5077824;28;20186;-78
2022/12/25 13:27:27;;;;;;;12.07;8.03;;;13.00;99.90;;;;;;5065991;28;20203;-78
2022/12/25 13:29:54;;;;;;;8.53;7.63;;;13.00;99.90;;;;;;5072126;28;20913;-79
2022/12/25 13:32:28;;;;;;;8.77;7.87;;;13.00;99.90;;;;;;5067049;28;20933;-78
2022/12/25 13:34:55;;;;;;;8.37;7.23;;;13.00;99.90;;;;;;5074638;28;20179;-78
2022/12/25 13:37:27;;;;;;;8.20;7.30;;;13.00;99.90;;;;;;5068934;28;20186;-78
2022/12/25 13:40:06;;;;;;;8.87;7.73;;;13.00;99.90;;;;;;5068796;28;20179;-78
2022/12/25 13:42:38;;;;;;;9.50;8.13;;;12.90;99.90;;;;;;5068825;28;20187;-78
2022/12/25 13:45:27;;;;;;;9.97;7.90;;;12.90;99.90;;;;;;5072119;28;20187;-78
2022/12/25 13:47:55;;;;;;;8.37;7.43;;;12.90;99.90;;;;;;5067232;28;20195;-78
2022/12/25 13:50:30;;;;;;;10.77;8.37;;;12.90;99.90;;;;;;5056616;28;20262;-79
2022/12/25 13:53:10;;;;;;;9.47;8.07;;;12.90;99.90;;;;;;5042181;28;20570;-78
2022/12/25 13:55:37;;;;;;;10.07;7.93;;;12.90;99.90;;;;;;5084835;28;20621;-78
2022/12/25 13:58:06;;;;;;;11.13;8.00;;;12.90;99.90;;;;;;5091470;28;20191;-78
2022/12/25 14:00:51;;;;;;;8.03;7.23;;;12.90;99.90;;;;;;5038552;28;20179;-78
2022/12/25 14:03:30;;;;;;;9.77;7.90;;;12.90;99.90;;;;;;5049724;28;20182;-78
2022/12/25 14:06:04;;;;;;;10.33;8.00;;;12.90;99.90;;;;;;5070151;28;20663;-78
2022/12/25 14:08:34;;;;;;;9.40;8.10;;;12.90;99.90;;;;;;5084077;28;20178;-78
2022/12/25 14:11:04;;;;;;;9.57;7.93;;;12.90;99.90;;;;;;5055692;28;20222;-78
2022/12/25 14:13:39;;;;;;;8.43;7.57;;;12.90;99.90;;;;;;5042905;28;20206;-78
2022/12/25 14:16:08;;;;;;;10.90;8.40;;;12.80;99.90;;;;;;5058578;28;20182;-78
2022/12/25 14:18:34;;;;;;;8.33;7.43;;;12.80;99.90;;;;;;5068464;28;20179;-79
2022/12/25 14:21:06;;;;;;;13.70;7.80;;;12.80;99.90;;;;;;5089518;28;20547;-78
2022/12/25 14:23:44;;;;;;;9.57;7.90;;;12.80;99.90;;;;;;5054532;28;20252;-78
2022/12/25 14:26:30;;;;;;;10.50;7.87;;;12.70;99.90;;;;;;5063002;28;20592;-78
2022/12/25 14:29:08;;;;;;;10.00;7.83;;;12.70;99.90;;;;;;5064667;28;20195;-78
2022/12/25 14:31:39;;;;;;;11.97;8.23;;;12.70;99.90;;;;;;5058057;28;20621;-78
2022/12/25 14:34:19;;;;;;;9.80;7.63;;;12.70;99.90;;;;;;5063641;28;20305;-78
2022/12/25 14:36:47;;;;;;;9.53;8.40;;;12.70;99.90;;;;;;5060585;28;20187;-78
2022/12/25 14:39:36;;;;;;;9.57;7.80;;;12.70;99.90;;;;;;5051328;28;20178;-78
2022/12/25 14:42:24;;;;;;;14.97;8.60;;;12.60;99.90;;;;;;5064434;28;20194;-79
2022/12/25 14:45:05;;;;;;;11.00;8.40;;;12.60;99.90;;;;;;5095216;28;20682;-78
2022/12/25 14:47:49;;;;;;;11.57;7.90;;;12.50;99.90;;;;;;5047851;28;20191;-78
2022/12/25 14:50:24;;;;;;;9.50;7.77;;;12.50;99.90;;;;;;5052039;28;20556;-78
2022/12/25 14:52:51;;;;;;;9.00;8.10;;;12.30;99.90;;;;;;5079313;28;20233;-78
2022/12/25 14:55:23;;;;;;;13.83;9.77;;;12.30;99.90;;;;;;5050517;28;20298;-78
2022/12/25 14:58:03;;;;;;;10.63;9.63;;;12.40;99.90;;;;;;5067671;28;20193;-78
2022/12/25 15:00:39;;;;;;;10.67;9.13;;;12.30;99.90;;;;;;5063825;28;20172;-78
2022/12/25 15:03:22;;;;;;;13.13;9.77;;;12.30;99.90;;;;;;5051680;28;20190;-78